Time;durP1;ratioP1;P1;durP2;ratioP2;P2;SDS_P1;SDS_P2;PMS_P1;PMS_P2;Temp;Humidity;BMP_temperature;BMP_pressure;BME280_temperature;BME280_humidity;BME280_pressure;Samples;Min_cycle;Max_cycle;Signal;HPM_P1;HPM_P2
2021/07/03 00:01:24;;;;;;;8.73;5.05;;;14.80;99.90;;;;;;5007423;28;20090;-70
2021/07/03 00:03:50;;;;;;;5.93;4.75;;;14.60;99.90;;;;;;5011904;28;20082;-72
2021/07/03 00:06:16;;;;;;;6.75;4.18;;;14.60;99.90;;;;;;4992556;28;20101;-71
2021/07/03 00:08:42;;;;;;;5.10;4.22;;;14.70;99.90;;;;;;5013400;28;20522;-70
2021/07/03 00:11:08;;;;;;;4.50;3.95;;;14.60;99.90;;;;;;5007073;28;20074;-70
2021/07/03 00:13:34;;;;;;;5.75;4.07;;;14.60;99.90;;;;;;5011911;28;20077;-70
2021/07/03 00:16:00;;;;;;;5.88;4.93;;;14.60;99.90;;;;;;5008363;28;20102;-71
2021/07/03 00:18:25;;;;;;;4.35;3.83;;;14.50;99.90;;;;;;5011255;28;20083;-69
2021/07/03 00:20:51;;;;;;;6.22;4.63;;;14.60;99.90;;;;;;5012406;28;20094;-72
2021/07/03 00:23:16;;;;;;;7.00;4.40;;;14.60;99.90;;;;;;5012979;28;20193;-70
2021/07/03 00:25:42;;;;;;;6.35;4.15;;;14.60;99.90;;;;;;5002308;28;20137;-71
2021/07/03 00:28:08;;;;;;;6.38;3.88;;;14.60;99.90;;;;;;4994045;28;20082;-70
2021/07/03 00:30:33;;;;;;;7.03;4.60;;;14.50;99.90;;;;;;5013837;28;20078;-70
2021/07/03 00:32:59;;;;;;;6.63;4.80;;;14.40;99.90;;;;;;5013495;28;20086;-71
2021/07/03 00:35:25;;;;;;;5.95;4.13;;;14.40;99.90;;;;;;5013556;28;20584;-70
2021/07/03 00:37:50;;;;;;;6.50;4.45;;;14.40;99.90;;;;;;5013970;28;20075;-70
2021/07/03 00:40:16;;;;;;;5.60;4.90;;;14.40;99.90;;;;;;5008471;28;20082;-71
2021/07/03 00:42:42;;;;;;;7.35;4.18;;;14.40;99.90;;;;;;5009630;28;20173;-70
2021/07/03 00:45:09;;;;;;;6.40;4.60;;;14.30;99.90;;;;;;5010139;28;20094;-71
2021/07/03 00:47:36;;;;;;;7.25;4.97;;;14.30;99.90;;;;;;5006715;28;20078;-71
2021/07/03 00:50:09;;;;;;;6.18;4.68;;;14.20;99.90;;;;;;5008297;28;20082;-70
2021/07/03 00:52:38;;;;;;;5.32;4.10;;;14.20;99.90;;;;;;5008909;28;20081;-70
2021/07/03 00:55:05;;;;;;;6.13;4.22;;;14.20;99.90;;;;;;5001224;28;20098;-70
2021/07/03 00:57:31;;;;;;;7.65;4.32;;;14.20;99.90;;;;;;5007765;28;20081;-70
2021/07/03 00:59:57;;;;;;;7.35;5.22;;;14.20;99.90;;;;;;5003078;28;20578;-71
2021/07/03 01:02:23;;;;;;;6.30;4.45;;;14.20;99.90;;;;;;5010758;28;20189;-70
2021/07/03 01:04:49;;;;;;;5.07;4.18;;;14.20;99.90;;;;;;5009433;28;20090;-71
2021/07/03 01:07:15;;;;;;;6.75;4.20;;;14.10;99.90;;;;;;5010337;28;20446;-71
2021/07/03 01:09:41;;;;;;;6.78;4.22;;;14.10;99.90;;;;;;5009444;28;20159;-70
2021/07/03 01:12:08;;;;;;;5.75;4.00;;;14.00;99.90;;;;;;5004565;28;20553;-70
2021/07/03 01:14:44;;;;;;;6.45;4.22;;;14.00;99.90;;;;;;5004905;28;20444;-70
2021/07/03 01:17:11;;;;;;;6.70;4.25;;;14.10;99.90;;;;;;5008780;28;20085;-71
2021/07/03 01:19:37;;;;;;;4.97;3.85;;;13.90;99.90;;;;;;5008429;28;20547;-71
2021/07/03 01:22:06;;;;;;;8.30;4.80;;;13.90;99.90;;;;;;4999554;28;20102;-71
2021/07/03 01:24:32;;;;;;;5.57;4.47;;;13.90;99.90;;;;;;5000857;28;20098;-69
2021/07/03 01:26:57;;;;;;;8.60;4.65;;;13.90;99.90;;;;;;5008409;28;20223;-70
2021/07/03 01:29:25;;;;;;;8.13;4.80;;;13.90;99.90;;;;;;5009108;28;20078;-70
2021/07/03 01:31:53;;;;;;;7.00;4.28;;;13.90;99.90;;;;;;5007951;28;20078;-71
2021/07/03 01:34:20;;;;;;;5.97;4.38;;;13.90;99.90;;;;;;5008968;28;20094;-71
2021/07/03 01:36:46;;;;;;;6.15;4.65;;;13.90;99.90;;;;;;5004131;28;20169;-70
2021/07/03 01:39:13;;;;;;;5.85;4.32;;;13.90;99.90;;;;;;5006620;28;20754;-70
2021/07/03 01:41:38;;;;;;;8.48;4.35;;;13.80;99.90;;;;;;5008981;28;20513;-70
2021/07/03 01:44:05;;;;;;;8.07;5.00;;;13.80;99.90;;;;;;5007457;28;20082;-69
2021/07/03 01:46:31;;;;;;;5.20;4.03;;;13.80;99.90;;;;;;5008863;28;20086;-71
2021/07/03 01:49:06;;;;;;;9.18;4.28;;;13.80;99.90;;;;;;5009539;28;20077;-70
2021/07/03 01:51:32;;;;;;;9.93;5.15;;;13.80;99.90;;;;;;5006177;28;20077;-69
2021/07/03 01:53:58;;;;;;;5.68;4.07;;;13.80;99.90;;;;;;5007810;28;20081;-70
2021/07/03 01:56:24;;;;;;;5.57;4.72;;;13.90;99.90;;;;;;5006716;28;20465;-70
2021/07/03 01:58:50;;;;;;;7.13;4.80;;;13.80;99.90;;;;;;5005391;28;20556;-70
2021/07/03 02:01:16;;;;;;;5.70;4.47;;;13.80;99.90;;;;;;5008839;28;20173;-70
2021/07/03 02:03:41;;;;;;;6.28;4.43;;;13.80;99.90;;;;;;5006598;28;20468;-69
2021/07/03 02:06:08;;;;;;;8.40;4.82;;;13.80;99.90;;;;;;5006563;28;20948;-69
2021/07/03 02:08:35;;;;;;;5.55;4.60;;;13.80;99.90;;;;;;5007738;28;20070;-69
2021/07/03 02:11:01;;;;;;;5.57;4.72;;;13.70;99.90;;;;;;5006075;28;20165;-70
2021/07/03 02:13:28;;;;;;;6.07;4.47;;;13.70;99.90;;;;;;5007136;28;20189;-70
2021/07/03 02:15:54;;;;;;;5.70;4.05;;;13.80;99.90;;;;;;5005592;28;20101;-70
2021/07/03 02:18:20;;;;;;;4.78;3.75;;;13.80;99.90;;;;;;5007230;28;20082;-71
2021/07/03 02:20:46;;;;;;;11.20;4.82;;;13.70;99.90;;;;;;5007110;28;20075;-70
2021/07/03 02:23:12;;;;;;;5.28;4.43;;;13.70;99.90;;;;;;5008901;28;20193;-70
2021/07/03 02:25:37;;;;;;;8.02;4.15;;;13.60;99.90;;;;;;5000990;28;20213;-70
2021/07/03 02:28:04;;;;;;;5.68;4.40;;;13.70;99.90;;;;;;5007738;28;20090;-70
2021/07/03 02:30:30;;;;;;;5.22;3.97;;;13.70;99.90;;;;;;5005975;28;20067;-70
2021/07/03 02:32:58;;;;;;;4.75;4.22;;;13.70;99.90;;;;;;5007633;28;20129;-70
2021/07/03 02:35:24;;;;;;;7.28;4.60;;;13.70;99.90;;;;;;5004056;28;20103;-70
2021/07/03 02:37:50;;;;;;;6.20;4.32;;;13.70;99.90;;;;;;5008176;28;20070;-70
2021/07/03 02:40:18;;;;;;;6.35;4.20;;;13.70;99.90;;;;;;5008651;28;20157;-70
2021/07/03 02:42:44;;;;;;;6.68;4.80;;;13.60;99.90;;;;;;5004800;28;20269;-70
2021/07/03 02:45:12;;;;;;;5.80;3.90;;;13.50;99.90;;;;;;5008495;28;20165;-70
2021/07/03 02:47:39;;;;;;;6.55;4.13;;;13.40;99.90;;;;;;5004403;28;20141;-70
2021/07/03 02:50:06;;;;;;;5.43;4.30;;;13.40;99.90;;;;;;5004996;28;20070;-70
2021/07/03 02:52:32;;;;;;;6.05;4.60;;;13.50;99.90;;;;;;5006618;28;20074;-70
2021/07/03 02:54:57;;;;;;;7.72;3.90;;;13.40;99.90;;;;;;4989325;28;20106;-70
2021/07/03 02:57:23;;;;;;;4.93;3.67;;;13.30;99.90;;;;;;5005060;28;20089;-70
2021/07/03 02:59:48;;;;;;;5.10;4.15;;;13.30;99.90;;;;;;5005986;28;20082;-70
2021/07/03 03:02:14;;;;;;;6.32;3.97;;;13.30;99.90;;;;;;5007213;28;20177;-70
2021/07/03 03:04:40;;;;;;;4.05;3.13;;;13.30;99.90;;;;;;5006990;28;20156;-70
2021/07/03 03:07:06;;;;;;;6.07;4.10;;;13.20;99.90;;;;;;5005143;28;20074;-70
2021/07/03 03:09:32;;;;;;;5.30;4.30;;;13.30;99.90;;;;;;5006173;28;20088;-70
2021/07/03 03:11:57;;;;;;;5.63;4.00;;;13.20;99.90;;;;;;5002589;28;20450;-70
2021/07/03 03:14:24;;;;;;;6.00;4.30;;;13.20;99.90;;;;;;5004493;28;20570;-69
2021/07/03 03:16:50;;;;;;;7.97;4.53;;;13.10;99.90;;;;;;5003964;28;20074;-69
2021/07/03 03:19:15;;;;;;;5.95;4.70;;;13.00;99.90;;;;;;5008341;28;20824;-70
2021/07/03 03:21:41;;;;;;;6.57;3.95;;;13.00;99.90;;;;;;5005394;28;20177;-70
2021/07/03 03:24:07;;;;;;;5.05;4.05;;;12.90;99.90;;;;;;5006138;28;20075;-70
2021/07/03 03:26:33;;;;;;;5.43;3.85;;;13.00;99.90;;;;;;5004734;28;20083;-69
2021/07/03 03:28:59;;;;;;;5.30;3.72;;;13.00;99.90;;;;;;5001985;28;20110;-69
2021/07/03 03:31:25;;;;;;;5.65;3.97;;;12.90;99.90;;;;;;5002973;28;20485;-70
2021/07/03 03:33:50;;;;;;;4.35;3.53;;;12.80;99.90;;;;;;5007368;28;20084;-69
2021/07/03 03:36:16;;;;;;;5.43;3.58;;;12.90;99.90;;;;;;5004320;28;20218;-70
2021/07/03 03:38:42;;;;;;;5.05;3.30;;;12.80;99.90;;;;;;5005399;28;20101;-70
2021/07/03 03:41:07;;;;;;;4.90;3.92;;;12.90;99.90;;;;;;5006853;28;20083;-72
2021/07/03 03:43:33;;;;;;;5.75;3.72;;;12.90;99.90;;;;;;5006816;28;20098;-71
2021/07/03 03:45:58;;;;;;;6.60;3.75;;;12.70;99.90;;;;;;5006412;28;20109;-70
2021/07/03 03:48:24;;;;;;;6.43;4.15;;;12.70;99.90;;;;;;5007355;28;20082;-71
2021/07/03 03:50:49;;;;;;;5.03;4.00;;;12.70;99.90;;;;;;5007857;28;20082;-71
2021/07/03 03:53:15;;;;;;;5.75;4.32;;;12.80;99.90;;;;;;5005442;28;20082;-70
2021/07/03 03:55:41;;;;;;;7.53;4.68;;;12.80;99.90;;;;;;5004649;28;20114;-70
2021/07/03 03:58:06;;;;;;;4.60;3.78;;;12.90;99.90;;;;;;5004883;28;20101;-69
2021/07/03 04:00:32;;;;;;;5.03;3.50;;;12.90;99.90;;;;;;5004463;28;20079;-71
2021/07/03 04:02:57;;;;;;;5.78;3.58;;;12.80;99.90;;;;;;5006232;28;20094;-71
2021/07/03 04:05:23;;;;;;;6.35;4.63;;;12.80;99.90;;;;;;5005067;28;20095;-70
2021/07/03 04:07:49;;;;;;;4.78;3.88;;;12.90;99.90;;;;;;5005660;28;20710;-70
2021/07/03 04:10:15;;;;;;;6.05;4.43;;;13.00;99.90;;;;;;5007453;28;20078;-70
2021/07/03 04:12:42;;;;;;;4.30;3.72;;;13.00;99.90;;;;;;5004382;28;20074;-71
2021/07/03 04:15:09;;;;;;;7.03;4.60;;;13.00;99.90;;;;;;5002849;28;20567;-72
2021/07/03 04:17:35;;;;;;;6.05;4.50;;;13.10;99.90;;;;;;5007500;28;20954;-71
2021/07/03 04:20:01;;;;;;;5.30;4.18;;;13.10;99.90;;;;;;5009935;28;20193;-69
2021/07/03 04:22:29;;;;;;;5.60;4.03;;;13.20;99.90;;;;;;5010235;28;20098;-70
2021/07/03 04:24:55;;;;;;;5.53;4.22;;;13.30;99.90;;;;;;5005339;28;20094;-70
2021/07/03 04:27:20;;;;;;;5.80;4.03;;;13.20;99.90;;;;;;5007040;28;20960;-69
2021/07/03 04:29:46;;;;;;;7.68;4.85;;;13.20;99.90;;;;;;5010042;28;20077;-70
2021/07/03 04:32:12;;;;;;;5.80;4.18;;;13.30;99.90;;;;;;5008368;28;20086;-70
2021/07/03 04:34:38;;;;;;;6.88;4.90;;;13.30;99.90;;;;;;5006243;28;20083;-70
2021/07/03 04:37:03;;;;;;;8.30;4.50;;;13.40;99.90;;;;;;5004053;28;20690;-70
2021/07/03 04:39:29;;;;;;;6.60;4.20;;;13.30;99.90;;;;;;5010330;28;20102;-70
2021/07/03 04:41:54;;;;;;;4.32;3.38;;;13.50;99.90;;;;;;5010176;28;20673;-70
2021/07/03 04:44:20;;;;;;;5.30;4.07;;;13.60;99.90;;;;;;5008386;28;20229;-70
2021/07/03 04:46:47;;;;;;;6.80;3.80;;;13.70;99.90;;;;;;4992670;28;20085;-70
2021/07/03 04:49:13;;;;;;;4.95;4.00;;;13.80;99.90;;;;;;4990611;28;20078;-70
2021/07/03 04:51:39;;;;;;;6.53;4.07;;;13.90;99.90;;;;;;5010130;28;20079;-70
2021/07/03 04:54:05;;;;;;;7.07;4.70;;;14.00;99.90;;;;;;5009285;28;20094;-70
2021/07/03 04:56:31;;;;;;;5.80;4.55;;;14.10;99.90;;;;;;5005577;28;20078;-70
2021/07/03 04:58:56;;;;;;;5.25;4.50;;;14.20;99.90;;;;;;5007242;28;20078;-70
2021/07/03 05:01:23;;;;;;;6.13;5.13;;;14.30;99.90;;;;;;5010770;28;20087;-70
2021/07/03 05:03:49;;;;;;;8.18;4.90;;;14.40;99.90;;;;;;5009529;28;20071;-70
2021/07/03 05:06:15;;;;;;;7.07;5.07;;;14.50;99.90;;;;;;4990162;28;20187;-71
2021/07/03 05:08:40;;;;;;;8.73;5.90;;;14.50;99.90;;;;;;5009522;28;20217;-70
2021/07/03 05:11:06;;;;;;;7.10;5.07;;;14.50;99.90;;;;;;5009261;28;20539;-71
2021/07/03 05:13:32;;;;;;;7.32;5.55;;;14.60;99.90;;;;;;5007629;28;20473;-70
2021/07/03 05:15:58;;;;;;;7.30;5.25;;;14.70;99.90;;;;;;5007591;28;20102;-71
2021/07/03 05:18:24;;;;;;;7.75;5.28;;;14.80;99.90;;;;;;5003926;28;20089;-70
2021/07/03 05:20:50;;;;;;;6.78;5.40;;;14.90;99.90;;;;;;5009732;28;20097;-71
2021/07/03 05:23:16;;;;;;;5.80;4.63;;;15.00;99.90;;;;;;5010714;28;20090;-70
2021/07/03 05:25:44;;;;;;;7.57;5.07;;;15.30;99.90;;;;;;5007298;28;20102;-70
2021/07/03 05:28:10;;;;;;;6.75;4.68;;;15.40;99.90;;;;;;5009924;28;20154;-70
2021/07/03 05:30:36;;;;;;;5.97;4.85;;;15.40;99.90;;;;;;4991108;28;20469;-70
2021/07/03 05:33:02;;;;;;;6.57;5.63;;;15.50;99.90;;;;;;5009489;28;20086;-70
2021/07/03 05:35:28;;;;;;;9.40;5.45;;;15.60;99.90;;;;;;4999697;28;20165;-71
2021/07/03 05:37:54;;;;;;;6.03;4.97;;;15.60;99.90;;;;;;4998537;28;20102;-70
2021/07/03 05:40:20;;;;;;;8.57;6.07;;;15.70;99.90;;;;;;5011123;28;20077;-70
2021/07/03 05:42:45;;;;;;;6.70;5.22;;;15.70;99.90;;;;;;5010936;28;20141;-71
2021/07/03 05:45:14;;;;;;;6.50;5.80;;;15.80;99.90;;;;;;5002879;28;20095;-72
2021/07/03 05:47:40;;;;;;;8.32;5.72;;;15.80;99.90;;;;;;4989449;28;20079;-71
2021/07/03 05:50:06;;;;;;;8.18;5.88;;;15.80;99.90;;;;;;4998017;28;20132;-71
2021/07/03 05:52:32;;;;;;;6.35;5.40;;;15.90;99.90;;;;;;5007639;28;20157;-69
2021/07/03 05:54:58;;;;;;;6.68;5.13;;;16.00;99.90;;;;;;5005035;28;20180;-70
2021/07/03 05:57:26;;;;;;;6.45;5.07;;;16.00;99.90;;;;;;5008101;28;20112;-71
2021/07/03 05:59:52;;;;;;;8.13;5.80;;;16.10;99.90;;;;;;5003043;28;20074;-70
2021/07/03 06:02:17;;;;;;;8.00;5.85;;;16.10;99.90;;;;;;5006616;28;20100;-69
2021/07/03 06:04:43;;;;;;;8.10;5.13;;;16.20;99.90;;;;;;5005977;28;20166;-70
2021/07/03 06:07:08;;;;;;;6.25;4.95;;;16.30;99.90;;;;;;5003712;28;20086;-70
2021/07/03 06:09:34;;;;;;;7.78;5.70;;;16.40;99.90;;;;;;5009598;28;20129;-70
2021/07/03 06:11:59;;;;;;;6.60;5.30;;;16.60;99.90;;;;;;5006615;28;20153;-69
2021/07/03 06:14:25;;;;;;;7.45;5.95;;;16.70;99.90;;;;;;4998246;28;20106;-70
2021/07/03 06:16:51;;;;;;;6.85;5.93;;;16.80;99.90;;;;;;4996681;28;20610;-70
2021/07/03 06:19:21;;;;;;;8.38;5.85;;;16.90;99.90;;;;;;5003175;28;20160;-69
2021/07/03 06:21:47;;;;;;;7.75;5.82;;;17.00;99.90;;;;;;5006492;28;20133;-70
2021/07/03 06:24:13;;;;;;;9.13;6.30;;;17.10;99.90;;;;;;5006589;28;20095;-70
2021/07/03 06:26:40;;;;;;;8.50;6.85;;;17.20;99.90;;;;;;5008067;28;20117;-70
2021/07/03 06:29:06;;;;;;;9.88;7.13;;;17.30;99.90;;;;;;5008229;28;20074;-70
2021/07/03 06:31:31;;;;;;;8.77;7.43;;;17.40;99.90;;;;;;5003669;28;20485;-70
2021/07/03 06:33:57;;;;;;;6.30;5.20;;;17.50;99.90;;;;;;5006805;28;20588;-72
2021/07/03 06:36:23;;;;;;;7.47;5.88;;;17.50;99.90;;;;;;5002580;28;20094;-71
2021/07/03 06:38:49;;;;;;;7.70;5.80;;;17.60;99.90;;;;;;5005661;28;20117;-70
2021/07/03 06:41:14;;;;;;;6.30;4.85;;;17.90;99.90;;;;;;5006964;28;20075;-70
2021/07/03 06:43:40;;;;;;;7.55;5.18;;;17.90;99.90;;;;;;5006732;28;20098;-70
2021/07/03 06:46:05;;;;;;;7.18;5.30;;;17.80;99.90;;;;;;5001986;28;20094;-71
2021/07/03 06:48:31;;;;;;;7.55;5.07;;;17.90;99.90;;;;;;5006134;28;20078;-70
2021/07/03 06:50:56;;;;;;;7.93;5.13;;;18.00;99.90;;;;;;5003689;28;20747;-73
2021/07/03 06:53:22;;;;;;;11.65;6.45;;;18.00;99.90;;;;;;4999185;28;20083;-71
2021/07/03 06:55:48;;;;;;;9.07;6.43;;;18.10;99.90;;;;;;5006918;28;20737;-71
2021/07/03 06:58:13;;;;;;;8.68;5.43;;;18.20;99.90;;;;;;5005551;28;20078;-70
2021/07/03 07:00:39;;;;;;;6.30;4.47;;;18.30;99.90;;;;;;4998455;28;20431;-70
2021/07/03 07:03:05;;;;;;;7.28;5.32;;;18.30;99.90;;;;;;5008627;28;20101;-71
2021/07/03 07:05:31;;;;;;;8.48;5.35;;;18.40;99.90;;;;;;5006935;28;20086;-71
2021/07/03 07:07:57;;;;;;;10.32;5.50;;;18.40;99.90;;;;;;5008628;28;20075;-72
2021/07/03 07:10:22;;;;;;;6.07;4.93;;;18.40;99.90;;;;;;5008352;28;20082;-71
2021/07/03 07:12:48;;;;;;;6.18;4.78;;;18.40;99.90;;;;;;5002812;28;20086;-71
2021/07/03 07:15:14;;;;;;;6.70;5.35;;;18.50;99.90;;;;;;4994971;28;20220;-70
2021/07/03 07:17:39;;;;;;;8.38;5.50;;;18.60;99.90;;;;;;5003758;28;20446;-71
2021/07/03 07:20:06;;;;;;;6.93;5.50;;;18.70;99.90;;;;;;5005196;28;20082;-70
2021/07/03 07:22:32;;;;;;;9.68;6.45;;;18.70;99.90;;;;;;5002794;28;20098;-71
2021/07/03 07:24:58;;;;;;;8.75;5.70;;;18.70;99.90;;;;;;5007706;28;20117;-70
2021/07/03 07:27:23;;;;;;;7.28;5.45;;;18.70;99.90;;;;;;5008888;28;20074;-70
2021/07/03 07:29:49;;;;;;;7.05;4.97;;;18.70;99.90;;;;;;5007300;28;20082;-70
2021/07/03 07:32:15;;;;;;;7.22;5.28;;;18.80;99.90;;;;;;5009322;28;20161;-71
2021/07/03 07:34:40;;;;;;;8.13;5.50;;;18.70;99.90;;;;;;5005568;28;20091;-71
2021/07/03 07:37:06;;;;;;;7.45;4.75;;;18.90;99.90;;;;;;4992008;28;20498;-74
2021/07/03 07:39:32;;;;;;;7.72;4.93;;;18.80;99.90;;;;;;5007415;28;20412;-72
2021/07/03 07:41:58;;;;;;;6.40;5.22;;;18.80;99.90;;;;;;5008933;28;20087;-72
2021/07/03 07:44:23;;;;;;;7.30;5.13;;;18.90;99.90;;;;;;5007823;28;20581;-72
2021/07/03 07:46:49;;;;;;;6.35;4.55;;;18.90;99.90;;;;;;5002182;28;20546;-71
2021/07/03 07:49:15;;;;;;;7.72;5.18;;;19.00;99.90;;;;;;5011707;28;20149;-70
2021/07/03 07:51:40;;;;;;;5.78;4.47;;;19.10;99.90;;;;;;5011627;28;20165;-70
2021/07/03 07:54:06;;;;;;;7.30;5.47;;;19.10;99.90;;;;;;5008153;28;20495;-71
2021/07/03 07:56:31;;;;;;;7.85;5.72;;;19.10;99.90;;;;;;5010717;28;20097;-71
2021/07/03 07:58:57;;;;;;;5.93;4.57;;;19.20;99.90;;;;;;5010985;28;20085;-71
2021/07/03 08:01:24;;;;;;;5.85;4.72;;;19.30;99.90;;;;;;5007619;28;20082;-71
2021/07/03 08:03:49;;;;;;;6.50;4.97;;;19.30;99.90;;;;;;5007079;28;20124;-71
2021/07/03 08:06:15;;;;;;;5.97;4.85;;;19.30;99.90;;;;;;5011726;28;20122;-71
2021/07/03 08:08:40;;;;;;;7.65;5.28;;;19.30;99.90;;;;;;5010901;28;20071;-71
2021/07/03 08:11:06;;;;;;;6.13;4.70;;;19.30;99.90;;;;;;5009317;28;20084;-73
2021/07/03 08:13:32;;;;;;;5.88;5.03;;;19.30;99.90;;;;;;5008399;28;20632;-71
2021/07/03 08:15:57;;;;;;;7.15;5.13;;;19.40;99.90;;;;;;4987174;28;20545;-70
2021/07/03 08:18:23;;;;;;;6.70;5.20;;;19.50;99.90;;;;;;5005954;28;20501;-70
2021/07/03 08:20:50;;;;;;;6.65;4.53;;;19.80;99.90;;;;;;5006488;28;20098;-70
2021/07/03 08:23:19;;;;;;;6.95;4.68;;;19.80;99.90;;;;;;5006383;28;20638;-70
2021/07/03 08:25:48;;;;;;;6.32;4.13;;;19.70;99.90;;;;;;5006558;28;20117;-71
2021/07/03 08:28:14;;;;;;;7.22;4.72;;;19.70;99.90;;;;;;5005528;28;20497;-69
2021/07/03 08:30:40;;;;;;;6.53;4.28;;;20.00;99.90;;;;;;5007160;28;20094;-70
2021/07/03 08:33:06;;;;;;;7.10;3.97;;;20.10;99.90;;;;;;4990674;28;20165;-71
2021/07/03 08:35:31;;;;;;;4.72;4.30;;;20.10;99.90;;;;;;5004422;28;20130;-70
2021/07/03 08:37:57;;;;;;;5.25;4.22;;;20.20;99.90;;;;;;4987621;28;20209;-70
2021/07/03 08:40:22;;;;;;;7.75;4.55;;;20.20;99.90;;;;;;5003805;28;20089;-71
2021/07/03 08:42:48;;;;;;;7.15;4.32;;;20.00;99.90;;;;;;5011044;28;20132;-70
2021/07/03 08:45:15;;;;;;;7.07;4.70;;;20.10;99.90;;;;;;5010376;28;20219;-71
2021/07/03 08:47:43;;;;;;;4.97;4.05;;;20.10;99.90;;;;;;5011172;28;20078;-70
2021/07/03 08:50:11;;;;;;;4.60;3.88;;;20.40;99.90;;;;;;4994469;28;20070;-71
2021/07/03 08:52:36;;;;;;;5.55;3.72;;;20.50;99.90;;;;;;5012309;28;20082;-71
2021/07/03 08:55:05;;;;;;;5.15;3.95;;;20.60;99.90;;;;;;5011447;28;20689;-74
2021/07/03 08:57:34;;;;;;;5.95;4.50;;;20.70;99.90;;;;;;5011708;28;20531;-73
2021/07/03 09:00:04;;;;;;;6.18;4.68;;;20.60;99.90;;;;;;5004273;28;20109;-74
2021/07/03 09:02:39;;;;;;;6.03;4.65;;;20.50;99.90;;;;;;5012887;28;20182;-73
2021/07/03 09:05:17;;;;;;;5.85;4.65;;;20.40;99.90;;;;;;5005116;28;20097;-71
2021/07/03 09:07:43;;;;;;;5.35;4.43;;;20.40;99.90;;;;;;5001202;28;20089;-70
2021/07/03 09:10:09;;;;;;;6.95;4.20;;;20.40;99.90;;;;;;5011494;28;20070;-71
2021/07/03 09:12:36;;;;;;;5.57;3.90;;;20.40;99.90;;;;;;5009348;28;20163;-71
2021/07/03 09:15:09;;;;;;;6.45;4.20;;;20.40;99.90;;;;;;5003970;28;20836;-70
2021/07/03 09:18:06;;;;;;;7.93;4.30;;;20.30;99.90;;;;;;5004054;28;20081;-70
2021/07/03 09:20:54;;;;;;;5.90;4.38;;;20.30;99.90;;;;;;4987087;28;20082;-71
2021/07/03 09:23:33;;;;;;;5.15;4.25;;;20.10;99.90;;;;;;5001334;28;20189;-72
2021/07/03 09:26:01;;;;;;;5.90;4.38;;;20.00;99.90;;;;;;5001102;28;20104;-71
2021/07/03 09:28:33;;;;;;;4.63;4.00;;;20.00;99.90;;;;;;5001979;28;20071;-72
2021/07/03 09:31:03;;;;;;;4.97;4.47;;;20.10;99.90;;;;;;5003311;28;20067;-71
2021/07/03 09:33:33;;;;;;;6.97;5.15;;;20.50;99.90;;;;;;5000654;28;20077;-70
2021/07/03 09:36:04;;;;;;;5.85;4.20;;;20.70;99.90;;;;;;5001435;28;20090;-73
2021/07/03 09:38:35;;;;;;;11.82;4.47;;;20.70;99.90;;;;;;5000114;28;20169;-70
2021/07/03 09:41:30;;;;;;;6.72;4.38;;;20.70;99.90;;;;;;4984802;28;20083;-70
2021/07/03 09:44:07;;;;;;;6.43;4.00;;;20.90;99.90;;;;;;4979925;28;20087;-70
2021/07/03 09:46:46;;;;;;;4.32;3.90;;;21.00;99.90;;;;;;5002791;28;20089;-70
2021/07/03 09:49:22;;;;;;;5.82;4.38;;;21.00;99.90;;;;;;5004651;28;20133;-70
2021/07/03 09:51:59;;;;;;;4.20;3.70;;;21.10;99.90;;;;;;5001415;28;20066;-70
2021/07/03 09:54:27;;;;;;;5.07;4.00;;;21.20;99.90;;;;;;4986729;28;20185;-71
2021/07/03 09:56:59;;;;;;;6.03;3.80;;;21.00;99.90;;;;;;5001479;28;20173;-70
2021/07/03 09:59:33;;;;;;;4.25;3.53;;;21.00;99.90;;;;;;5000533;28;20078;-71
2021/07/03 10:01:59;;;;;;;;;;;21.10;99.90;;;;;;5003317;28;20082;-70
2021/07/03 10:04:25;;;;;;;3.90;3.35;;;21.00;99.90;;;;;;5005892;28;19981;-71
2021/07/03 10:07:01;;;;;;;4.13;3.65;;;21.00;99.90;;;;;;5004967;28;20066;-71
2021/07/03 10:09:43;;;;;;;5.28;3.88;;;21.20;99.90;;;;;;5006613;28;20108;-72
2021/07/03 10:12:12;;;;;;;4.13;3.42;;;21.10;99.90;;;;;;5002130;28;20106;-73
2021/07/03 10:14:39;;;;;;;5.35;4.10;;;21.10;99.90;;;;;;5000547;28;20112;-71
2021/07/03 10:17:06;;;;;;;4.20;3.00;;;21.00;99.90;;;;;;5001245;28;20113;-71
2021/07/03 10:19:34;;;;;;;5.97;3.50;;;21.10;99.90;;;;;;5002141;28;20074;-71
2021/07/03 10:22:24;;;;;;;5.90;3.85;;;21.10;99.90;;;;;;5001981;28;20091;-71
2021/07/03 10:25:11;;;;;;;4.30;3.70;;;21.20;99.90;;;;;;4988870;28;20824;-70
2021/07/03 10:27:48;;;;;;;4.85;3.03;;;21.20;99.90;;;;;;5003187;28;20075;-71
2021/07/03 10:30:29;;;;;;;6.88;3.85;;;21.10;99.90;;;;;;5000544;28;20596;-71
2021/07/03 10:33:00;;;;;;;4.60;3.65;;;21.20;99.90;;;;;;5004059;28;20157;-71
2021/07/03 10:35:26;;;;;;;6.30;3.53;;;21.30;99.90;;;;;;5008634;28;20113;-71
2021/07/03 10:37:54;;;;;;;8.15;3.35;;;21.50;99.90;;;;;;5009956;28;20070;-72
2021/07/03 10:40:26;;;;;;;6.68;3.80;;;21.60;99.90;;;;;;5009187;28;20074;-71
2021/07/03 10:42:54;;;;;;;4.70;3.80;;;21.70;99.90;;;;;;5009651;28;20190;-71
2021/07/03 10:45:23;;;;;;;5.43;3.45;;;21.90;99.90;;;;;;5006904;28;20098;-70
2021/07/03 10:47:54;;;;;;;4.15;3.08;;;21.70;99.90;;;;;;4992056;28;20079;-72
2021/07/03 10:50:21;;;;;;;6.20;4.47;;;21.50;99.90;;;;;;5009800;28;20078;-72
2021/07/03 10:52:46;;;;;;;4.53;3.75;;;21.60;99.90;;;;;;5007612;28;20269;-70
2021/07/03 10:55:12;;;;;;;3.75;3.25;;;21.40;99.90;;;;;;5002001;28;20656;-71
2021/07/03 10:57:43;;;;;;;5.50;3.58;;;21.40;99.90;;;;;;5005407;28;20093;-71
2021/07/03 11:00:11;;;;;;;5.15;3.50;;;21.20;99.90;;;;;;5003291;28;20589;-71
2021/07/03 11:02:37;;;;;;;3.58;3.13;;;21.40;99.90;;;;;;5006709;28;20094;-71
2021/07/03 11:05:12;;;;;;;4.47;3.28;;;21.40;99.90;;;;;;5004719;28;20455;-71
2021/07/03 11:07:38;;;;;;;5.03;3.30;;;21.40;99.90;;;;;;5008510;28;20062;-71
2021/07/03 11:10:27;;;;;;;5.40;3.50;;;21.60;99.90;;;;;;5003830;28;20505;-72
2021/07/03 11:12:55;;;;;;;6.03;3.60;;;21.50;99.90;;;;;;5007401;28;20086;-72
2021/07/03 11:15:27;;;;;;;4.63;3.15;;;21.80;99.90;;;;;;4995863;28;20145;-72
2021/07/03 11:17:56;;;;;;;3.50;3.20;;;21.50;98.10;;;;;;5008129;28;20078;-72
2021/07/03 11:20:33;;;;;;;3.85;3.15;;;21.40;98.30;;;;;;5004961;28;20129;-72
2021/07/03 11:23:00;;;;;;;8.00;3.58;;;21.50;98.10;;;;;;5008028;28;20109;-71
2021/07/03 11:25:37;;;;;;;5.28;3.33;;;21.50;98.00;;;;;;4997506;28;20713;-71
2021/07/03 11:28:20;;;;;;;3.67;3.20;;;21.70;99.10;;;;;;5000989;28;20074;-71
2021/07/03 11:30:48;;;;;;;5.10;3.28;;;21.60;98.50;;;;;;5006684;28;20150;-71
2021/07/03 11:33:14;;;;;;;3.50;3.20;;;21.60;98.40;;;;;;4989041;28;20078;-71
2021/07/03 11:35:47;;;;;;;4.18;3.22;;;21.70;98.10;;;;;;5006633;28;20094;-71
2021/07/03 11:38:14;;;;;;;5.35;3.20;;;21.60;98.20;;;;;;5005072;28;20078;-71
2021/07/03 11:40:40;;;;;;;4.15;3.20;;;21.70;99.90;;;;;;5007311;28;20706;-70
2021/07/03 11:43:07;;;;;;;2.65;2.42;;;21.90;98.60;;;;;;5006139;28;20160;-70
2021/07/03 11:45:35;;;;;;;5.38;3.05;;;21.90;97.70;;;;;;5006428;28;20136;-70
2021/07/03 11:48:06;;;;;;;3.53;2.67;;;22.00;97.00;;;;;;5007049;28;20085;-70
2021/07/03 11:50:34;;;;;;;4.55;3.55;;;21.90;96.30;;;;;;5006831;28;20634;-72
2021/07/03 11:53:02;;;;;;;4.47;2.80;;;21.80;96.90;;;;;;5005838;28;20087;-71
2021/07/03 11:55:42;;;;;;;4.25;2.60;;;21.70;97.00;;;;;;5006558;28;20839;-73
2021/07/03 11:58:25;;;;;;;3.95;2.60;;;21.80;96.60;;;;;;5006064;28;20074;-71
2021/07/03 12:00:53;;;;;;;4.10;2.97;;;21.80;95.60;;;;;;5001624;28;20078;-73
2021/07/03 12:03:27;;;;;;;4.82;2.95;;;21.90;95.60;;;;;;5006341;28;20098;-71
2021/07/03 12:05:57;;;;;;;4.72;3.08;;;21.80;96.30;;;;;;5001325;28;20185;-70
2021/07/03 12:08:34;;;;;;;3.53;2.40;;;22.00;96.20;;;;;;4999701;28;20174;-71
2021/07/03 12:11:02;;;;;;;4.65;3.03;;;22.00;96.30;;;;;;5003083;28;20078;-70
2021/07/03 12:13:33;;;;;;;3.45;2.92;;;21.80;95.60;;;;;;5006792;28;20075;-70
2021/07/03 12:15:59;;;;;;;4.85;3.35;;;21.80;96.20;;;;;;4980392;28;20185;-70
2021/07/03 12:18:40;;;;;;;4.10;3.38;;;22.00;96.80;;;;;;5006563;28;20158;-71
2021/07/03 12:21:15;;;;;;;5.55;3.08;;;22.10;98.20;;;;;;5004521;28;20092;-71
2021/07/03 12:23:46;;;;;;;4.53;3.00;;;22.20;98.20;;;;;;5007593;28;20495;-71
2021/07/03 12:26:14;;;;;;;3.55;3.00;;;22.10;98.00;;;;;;5003086;28;20137;-71
2021/07/03 12:28:53;;;;;;;3.70;2.65;;;22.30;99.60;;;;;;5005027;28;20075;-71
2021/07/03 12:31:24;;;;;;;3.50;3.15;;;22.30;97.70;;;;;;5007256;28;20074;-71
2021/07/03 12:34:00;;;;;;;4.28;3.20;;;22.10;97.30;;;;;;5006249;28;20114;-73
2021/07/03 12:36:44;;;;;;;3.53;2.88;;;22.40;97.60;;;;;;4965042;28;20102;-70
2021/07/03 12:39:12;;;;;;;3.67;3.30;;;22.50;99.10;;;;;;5010892;28;20074;-70
2021/07/03 12:41:40;;;;;;;2.80;2.33;;;22.60;97.20;;;;;;5009997;28;20086;-70
2021/07/03 12:44:06;;;;;;;3.22;2.75;;;22.70;95.30;;;;;;5010104;28;20481;-70
2021/07/03 12:46:34;;;;;;;3.28;2.55;;;22.60;95.60;;;;;;5009628;28;20510;-70
2021/07/03 12:49:01;;;;;;;3.90;2.63;;;22.50;94.80;;;;;;5009120;28;20078;-71
2021/07/03 12:51:34;;;;;;;3.90;2.85;;;22.60;96.60;;;;;;5011427;28;20141;-70